TimeCST,TemperatureF,Dew PointF,Humidity,Sea Level PressureIn,VisibilityMPH,Wind Direction,Wind SpeedMPH,Gust SpeedMPH,PrecipitationIn,Events,Conditions,WindDirDegrees,DateUTC
12:53 AM,27.0,21.0,78,30.32,10.0,Calm,Calm,-,N/A,,Clear,0,2013-11-28 06:53:00
1:53 AM,25.0,21.0,85,30.32,10.0,Calm,Calm,-,N/A,,Clear,0,2013-11-28 07:53:00
2:53 AM,28.0,21.9,78,30.32,10.0,ENE,3.5,-,N/A,,Clear,70,2013-11-28 08:53:00
3:53 AM,25.0,21.0,85,30.32,10.0,Calm,Calm,-,N/A,,Clear,0,2013-11-28 09:53:00
4:53 AM,25.0,19.9,81,30.32,10.0,Calm,Calm,-,N/A,,Clear,0,2013-11-28 10:53:00
5:53 AM,23.0,19.9,88,30.34,10.0,Calm,Calm,-,N/A,,Clear,0,2013-11-28 11:53:00
6:53 AM,21.9,19.0,89,30.36,10.0,Calm,Calm,-,N/A,,Clear,0,2013-11-28 12:53:00
7:53 AM,23.0,19.0,85,30.38,10.0,Calm,Calm,-,N/A,,Clear,0,2013-11-28 13:53:00
8:53 AM,30.9,24.1,76,30.38,10.0,SSE,3.5,-,N/A,,Clear,160,2013-11-28 14:53:00
9:53 AM,37.9,28.0,68,30.40,10.0,SSW,5.8,-,N/A,,Clear,200,2013-11-28 15:53:00
10:53 AM,46.0,28.9,51,30.38,10.0,SSW,6.9,-,N/A,,Clear,200,2013-11-28 16:53:00
11:53 AM,48.9,28.9,46,30.35,10.0,SW,4.6,-,N/A,,Clear,220,2013-11-28 17:53:00
12:53 PM,52.0,28.0,40,30.34,10.0,South,8.1,-,N/A,,Clear,190,2013-11-28 18:53:00
1:53 PM,55.0,27.0,34,30.32,10.0,South,5.8,-,N/A,,Clear,180,2013-11-28 19:53:00
2:53 PM,55.9,19.0,24,30.30,10.0,Variable,6.9,-,N/A,,Clear,0,2013-11-28 20:53:00
3:53 PM,55.9,19.9,25,30.31,10.0,SSW,3.5,-,N/A,,Clear,210,2013-11-28 21:53:00
4:53 PM,54.0,25.0,33,30.33,10.0,SSE,9.2,-,N/A,,Clear,160,2013-11-28 22:53:00
5:53 PM,48.9,25.0,39,30.36,10.0,SSE,4.6,-,N/A,,Clear,150,2013-11-28 23:53:00
6:53 PM,42.1,27.0,55,30.38,10.0,East,3.5,-,N/A,,Clear,100,2013-11-29 00:53:00
7:53 PM,39.9,26.1,58,30.40,10.0,ESE,5.8,-,N/A,,Clear,120,2013-11-29 01:53:00
8:53 PM,37.9,26.1,62,30.41,10.0,ESE,5.8,-,N/A,,Clear,120,2013-11-29 02:53:00
9:53 PM,37.0,26.1,65,30.42,10.0,ESE,5.8,-,N/A,,Clear,120,2013-11-29 03:53:00
10:53 PM,34.0,26.1,73,30.43,10.0,SE,4.6,-,N/A,,Clear,130,2013-11-29 04:53:00
11:53 PM,33.1,25.0,72,30.42,10.0,East,4.6,-,N/A,,Clear,80,2013-11-29 05:53:00